Price: See chart below

Build-Up

We offer Hour Building on the C-172R (Diesel) aircraft.
You can fly over beautiful Crete (the most southern part of Greece) and the rest of the Greek islands and mainland with a choice of more than 30 Greek airports with various weather conditions.

Our Cessna 172R with endurance of more than 8 hours will enable you to fly almost anywhere you like over the Aegean Sea and Mediterranean countries like Italy or Turkey without facing any refueling problems.

This most definitely will improve your skills as a PIC (Pilot in Command).

Aircraft

Package

Hours

€ Per Hour

€ Total

Cessna 172R (Diesel)

-

1

185

185

Cessna 172R (Diesel)

Package 1

10

175

1,750

Cessna 172R (Diesel)

Package 2

50

160

8,000

Cessna 172R (Diesel)

Package 3

100

150

15,000

Note:

Above BUILD-UP package prices are on prepayment basis for SOLO flying. Instructor is included for up to 2 hrs for aircraft familiarization.

A/C Rental

A/C rental prices are, 200.00 euro per hour including an Instructor and 185.00 euro per hour SOLO (after a required check flight).

The same prices apply for Safety Pilot (if needed) for B-U.


Enjoy flying on our aircraft.

 

Student's Login

Local Time

LGIR WEATHER

[source: ADDS]
METAR
LGIR 191650Z 32011KT 9999 SCT020 24/19 Q1016 NOSIG =
TAF LGIR 191100Z 1912/2012 31017KT 9999 SCT020
TAF
TAF LGIR 191100Z 1912/2012 31017KT 9999 SCT020 =

Czech sport aircraft

Cretan Eagle Aviation Ltd. is proud to be appointed as an authorized Czech Sport Aircraft Promoter for Greece
and Cyprus. Please click on the link or give us a call for any additional information on Czech Sport Aircraft.

 

 

On-line PPL QUIZ

Student members can join our free on-line database to practice on PPL quizzes and get ready for the real
exams. Becoming a member and getting access to our system is FREE for all of our students.

 

Paypal Verified

Payments for any Course can be made by Bank Transfer, Cash and PayPal secure payment.

 

Go to top